Ana Sayfa
METAR-TAF:

METAR-TAF

Havaalanları :

Elâzığ Havalimanı

Elâzığ, Türkiye

Enlem: 38-36N, Boylam: 039-17E, yükseklik: 902 m

Güncel hava durumu gözlemi

Rapor saat 19:50 UTC de 46 dakika önce yapıldı.
Sakin rüzgar
Sıcaklık 17°C
Nem 77%
Basınç 1016 hPa
Görüş mesafesi 10 km veya daha fazla
3500 ft yükseklikte az bulutlu
20000 ft yükseklikte parçalı bulutlu

METAR: LTCA 231950Z 00000KT 9999 FEW035 SCT200 17/13 Q1016 NOSIG

Saat: 23:36 (20:36 UTC)

Tahmin

Rapor saat 19:40 UTC de 56 dakika önce yapıldı.
Ayın 23'si saat 21 UTC'den ayın 24'si saat 06 UTC'ye kadar geçerli Tahmin
Rüzgar değişken yönden 2 kt
Görüş mesafesi 10 km veya daha fazla
1500 m altında bulut yok ve kümülonimbus yok

TAF: LTCA 231940Z 2321/2406 VRB02KT CAVOK

4.000'den fazla havaalanı için hava durumu gözlemleri ve tahminleri (METAR ve TAF raporları).

Kullanılabilir istasyonlar harita üzerinde sarı ve kırmızı noktalarla gösterilir.

İstasyonun adını görmek için fareyi noktanın üzerinde gezdirin.

Sonrasında hava gözlem ve tahminlerini görmek için tıklayın.

Haritayı değiştirmek için: yaklaştırmak için siyah artı işaretli yeşil düğmeye ve uzaklaştırmak için de eksi işaretli düğmeye hızla tıklayın; bitişik haritalar için yeşil okları kullanın.


METAR-TAF: